PWSweather.com
Personal Weather Stations
Station Observations
MENWDWX1
Menstrie, ScotlandGB

MenstrieScotlandGB

Lat: 56.148322, Lon: -3.85483

Elevation: 62

Station Type: Davis Vantage Pro 2

High Low Average
Temperature 55.5°F13.1°C 41.0°F5.0°C 47.3°F8.5°C
Dew Point 41.8°F5.4°C 34.0°F1.1°C 38.0°F3.3°C
Winds 17.3 mph 27.8 kmh Calm Calm 6.0 mph SW9.7 kmh SW
Wind Gusts 26.5 mph42.6 kmh -- 10.0 mph16.1 kmh
Humidity 79% 48% 71%
Pressure 29.75 in1007.5 mb 29.24 in990.2 mb -
Precipitation 0.22 in5.6 mm - -
Hour Temp Dew Point Humidity Winds Wind Gusts Pressure Precip Precip Rate Daily Precip Total
12:00 AM 47.1°F8.4°C 40.6°F4.8°C 78% 3.5 mph ESE5.6 kmh ESE 6.9 mph11.1 kmh 29.31 in992.6 mb - 0.00 in0.0 mm 0.00 in0.0 mm
12:05 AM 47.1°F8.4°C 40.6°F4.8°C 78% 2.3 mph SE3.7 kmh SE 3.5 mph5.6 kmh 29.31 in992.6 mb - 0.00 in0.0 mm 0.00 in0.0 mm
12:10 AM 47.0°F8.3°C 40.5°F4.7°C 78% 4.6 mph ESE7.4 kmh ESE 6.9 mph11.1 kmh 29.31 in992.6 mb - 0.00 in0.0 mm 0.00 in0.0 mm
12:15 AM 47.0°F8.3°C 40.5°F4.7°C 78% 2.3 mph E3.7 kmh E 3.5 mph5.6 kmh 29.31 in992.6 mb - 0.00 in0.0 mm 0.00 in0.0 mm
12:20 AM 47.0°F8.3°C 40.5°F4.7°C 78% 4.6 mph E7.4 kmh E 5.8 mph9.3 kmh 29.30 in992.2 mb - 0.00 in0.0 mm 0.00 in0.0 mm
12:25 AM 47.1°F8.4°C 40.6°F4.8°C 78% 2.3 mph ESE3.7 kmh ESE 3.5 mph5.6 kmh 29.30 in992.2 mb - 0.00 in0.0 mm 0.00 in0.0 mm
12:30 AM 47.1°F8.4°C 40.6°F4.8°C 78% 2.3 mph SE3.7 kmh SE 3.5 mph5.6 kmh 29.30 in992.2 mb - 0.00 in0.0 mm 0.00 in0.0 mm
12:35 AM 47.0°F8.3°C 40.5°F4.7°C 78% 3.5 mph E5.6 kmh E 5.8 mph9.3 kmh 29.30 in992.2 mb - 0.00 in0.0 mm 0.00 in0.0 mm
12:40 AM 47.0°F8.3°C 40.5°F4.7°C 78% 3.5 mph SE5.6 kmh SE 6.9 mph11.1 kmh 29.30 in992.2 mb - 0.00 in0.0 mm 0.00 in0.0 mm
12:45 AM 47.0°F8.3°C 40.5°F4.7°C 78% 1.2 mph SE1.9 kmh SE 3.5 mph5.6 kmh 29.30 in992.2 mb - 0.00 in0.0 mm 0.00 in0.0 mm
12:50 AM 47.0°F8.3°C 40.5°F4.7°C 78% 1.2 mph S1.9 kmh S 2.3 mph3.7 kmh 29.30 in992.2 mb - 0.00 in0.0 mm 0.00 in0.0 mm
12:55 AM 47.0°F8.3°C 40.5°F4.7°C 78% 1.2 mph S1.9 kmh S 2.3 mph3.7 kmh 29.30 in992.2 mb - 0.00 in0.0 mm 0.00 in0.0 mm
01:00 AM 46.9°F8.3°C 40.4°F4.7°C 78% 2.3 mph SSE3.7 kmh SSE 3.5 mph5.6 kmh 29.30 in992.2 mb - 0.00 in0.0 mm 0.00 in0.0 mm
01:05 AM 46.9°F8.3°C 40.4°F4.7°C 78% Calm Calm 1.2 mph1.9 kmh 29.29 in991.9 mb - 0.00 in0.0 mm 0.00 in0.0 mm
01:10 AM 46.9°F8.3°C 40.4°F4.7°C 78% 3.5 mph SW5.6 kmh SW 4.6 mph7.4 kmh 29.29 in991.9 mb - 0.00 in0.0 mm 0.00 in0.0 mm
01:15 AM 46.8°F8.2°C 40.3°F4.6°C 78% 2.3 mph S3.7 kmh S 2.3 mph3.7 kmh 29.29 in991.9 mb - 0.00 in0.0 mm 0.00 in0.0 mm
01:20 AM 46.8°F8.2°C 40.3°F4.6°C 78% 3.5 mph S5.6 kmh S 3.5 mph5.6 kmh 29.29 in991.9 mb - 0.00 in0.0 mm 0.00 in0.0 mm
01:25 AM 46.9°F8.3°C 40.4°F4.7°C 78% 1.2 mph S1.9 kmh S 2.3 mph3.7 kmh 29.29 in991.9 mb - 0.00 in0.0 mm 0.00 in0.0 mm
01:30 AM 46.9°F8.3°C 40.4°F4.7°C 78% 1.2 mph SSE1.9 kmh SSE 3.5 mph5.6 kmh 29.29 in991.9 mb - 0.00 in0.0 mm 0.00 in0.0 mm
01:35 AM 46.9°F8.3°C 40.4°F4.7°C 78% 1.2 mph SSE1.9 kmh SSE 3.5 mph5.6 kmh 29.29 in991.9 mb - 0.00 in0.0 mm 0.00 in0.0 mm
01:40 AM 46.9°F8.3°C 40.4°F4.7°C 78% 2.3 mph SE3.7 kmh SE 3.5 mph5.6 kmh 29.29 in991.9 mb - 0.00 in0.0 mm 0.00 in0.0 mm
01:45 AM 46.9°F8.3°C 40.4°F4.7°C 78% 1.2 mph SE1.9 kmh SE 3.5 mph5.6 kmh 29.28 in991.5 mb - 0.00 in0.0 mm 0.00 in0.0 mm
01:50 AM 46.9°F8.3°C 40.4°F4.7°C 78% 2.3 mph SE3.7 kmh SE 3.5 mph5.6 kmh 29.28 in991.5 mb - 0.00 in0.0 mm 0.00 in0.0 mm
01:55 AM 46.8°F8.2°C 40.3°F4.6°C 78% 3.5 mph SE5.6 kmh SE 3.5 mph5.6 kmh 29.28 in991.5 mb - 0.00 in0.0 mm 0.00 in0.0 mm
02:00 AM 46.8°F8.2°C 40.3°F4.6°C 78% 2.3 mph SE3.7 kmh SE 3.5 mph5.6 kmh 29.28 in991.5 mb - 0.00 in0.0 mm 0.00 in0.0 mm
02:05 AM 46.7°F8.2°C 40.2°F4.6°C 78% 2.3 mph SE3.7 kmh SE 3.5 mph5.6 kmh 29.28 in991.5 mb - 0.00 in0.0 mm 0.00 in0.0 mm
02:10 AM 46.7°F8.2°C 40.2°F4.6°C 78% 1.2 mph SE1.9 kmh SE 2.3 mph3.7 kmh 29.28 in991.5 mb - 0.00 in0.0 mm 0.00 in0.0 mm
02:15 AM 46.6°F8.1°C 40.2°F4.6°C 78% 1.2 mph SE1.9 kmh SE 2.3 mph3.7 kmh 29.28 in991.5 mb - 0.00 in0.0 mm 0.00 in0.0 mm
02:20 AM 46.6°F8.1°C 40.1°F4.5°C 78% 1.2 mph ESE1.9 kmh ESE 2.3 mph3.7 kmh 29.28 in991.5 mb - 0.00 in0.0 mm 0.00 in0.0 mm
02:25 AM 46.6°F8.1°C 40.1°F4.5°C 78% 2.3 mph E3.7 kmh E 3.5 mph5.6 kmh 29.27 in991.2 mb - 0.01 in0.3 mm 0.01 in0.3 mm
02:30 AM 46.5°F8.1°C 40.0°F4.4°C 78% 1.2 mph S1.9 kmh S 3.5 mph5.6 kmh 29.27 in991.2 mb - 0.00 in0.0 mm 0.01 in0.3 mm
02:35 AM 46.5°F8.1°C 40.0°F4.4°C 78% 3.5 mph ESE5.6 kmh ESE 3.5 mph5.6 kmh 29.27 in991.2 mb - 0.00 in0.0 mm 0.01 in0.3 mm
02:40 AM 46.5°F8.1°C 40.0°F4.4°C 78% 2.3 mph SE3.7 kmh SE 3.5 mph5.6 kmh 29.27 in991.2 mb - 0.00 in0.0 mm 0.01 in0.3 mm
02:45 AM 46.5°F8.1°C 40.0°F4.4°C 78% 2.3 mph SE3.7 kmh SE 3.5 mph5.6 kmh 29.27 in991.2 mb - 0.01 in0.3 mm 0.02 in0.5 mm
02:50 AM 46.5°F8.1°C 40.0°F4.4°C 78% 1.2 mph SE1.9 kmh SE 2.3 mph3.7 kmh 29.27 in991.2 mb - 0.00 in0.0 mm 0.02 in0.5 mm
02:55 AM 46.5°F8.1°C 40.0°F4.4°C 78% 2.3 mph E3.7 kmh E 3.5 mph5.6 kmh 29.27 in991.2 mb - 0.00 in0.0 mm 0.02 in0.5 mm
03:00 AM 46.5°F8.1°C 40.0°F4.4°C 78% 2.3 mph E3.7 kmh E 3.5 mph5.6 kmh 29.27 in991.2 mb - 0.01 in0.3 mm 0.03 in0.8 mm
03:05 AM 46.4°F8.0°C 39.9°F4.4°C 78% 2.3 mph E3.7 kmh E 3.5 mph5.6 kmh 29.26 in990.9 mb - 0.01 in0.3 mm 0.03 in0.8 mm
03:10 AM 46.4°F8.0°C 39.9°F4.4°C 78% 2.3 mph E3.7 kmh E 3.5 mph5.6 kmh 29.26 in990.9 mb - 0.01 in0.3 mm 0.04 in1.0 mm
03:15 AM 46.4°F8.0°C 39.9°F4.4°C 78% 2.3 mph E3.7 kmh E 3.5 mph5.6 kmh 29.26 in990.9 mb - 0.01 in0.3 mm 0.05 in1.3 mm
03:20 AM 46.3°F7.9°C 39.8°F4.3°C 78% 3.5 mph E5.6 kmh E 3.5 mph5.6 kmh 29.26 in990.9 mb - 0.01 in0.3 mm 0.06 in1.5 mm
03:25 AM 46.2°F7.9°C 39.7°F4.3°C 78% 2.3 mph E3.7 kmh E 2.3 mph3.7 kmh 29.25 in990.5 mb - 0.01 in0.3 mm 0.06 in1.5 mm
03:30 AM 46.2°F7.9°C 39.7°F4.3°C 78% Calm Calm -- 29.25 in990.5 mb - 0.01 in0.3 mm 0.07 in1.8 mm
03:35 AM 46.1°F7.8°C 39.6°F4.2°C 78% Calm Calm -- 29.25 in990.5 mb - 0.01 in0.3 mm 0.07 in1.8 mm
03:40 AM 46.1°F7.8°C 39.6°F4.2°C 78% 2.3 mph E3.7 kmh E 3.5 mph5.6 kmh 29.25 in990.5 mb - 0.00 in0.0 mm 0.07 in1.8 mm
03:45 AM 46.0°F7.8°C 39.6°F4.2°C 78% 1.2 mph E1.9 kmh E 3.5 mph5.6 kmh 29.25 in990.5 mb - 0.01 in0.3 mm 0.08 in2.0 mm
03:50 AM 46.0°F7.8°C 39.5°F4.2°C 78% 2.3 mph E3.7 kmh E 2.3 mph3.7 kmh 29.25 in990.5 mb - 0.01 in0.3 mm 0.09 in2.3 mm
03:55 AM 46.0°F7.8°C 39.5°F4.2°C 78% 2.3 mph E3.7 kmh E 2.3 mph3.7 kmh 29.25 in990.5 mb - 0.02 in0.5 mm 0.10 in2.5 mm
04:00 AM 46.0°F7.8°C 39.5°F4.2°C 78% Calm Calm 2.3 mph3.7 kmh 29.25 in990.5 mb - 0.01 in0.3 mm 0.10 in2.5 mm
04:05 AM 45.9°F7.7°C 39.5°F4.2°C 78% Calm Calm -- 29.25 in990.5 mb - 0.01 in0.3 mm 0.11 in2.8 mm
04:10 AM 46.0°F7.8°C 39.5°F4.2°C 78% 1.2 mph E1.9 kmh E 3.5 mph5.6 kmh 29.25 in990.5 mb - 0.02 in0.5 mm 0.12 in3.0 mm
04:15 AM 46.0°F7.8°C 39.5°F4.2°C 78% 2.3 mph E3.7 kmh E 3.5 mph5.6 kmh 29.25 in990.5 mb - 0.01 in0.3 mm 0.12 in3.0 mm
04:20 AM 46.0°F7.8°C 39.5°F4.2°C 78% 1.2 mph E1.9 kmh E 2.3 mph3.7 kmh 29.24 in990.2 mb - 0.00 in0.0 mm 0.12 in3.0 mm
04:25 AM 46.0°F7.8°C 39.9°F4.4°C 79% Calm Calm -- 29.25 in990.5 mb - 0.01 in0.3 mm 0.12 in3.0 mm
04:30 AM 46.0°F7.8°C 39.9°F4.4°C 79% Calm Calm -- 29.25 in990.5 mb - 0.01 in0.3 mm 0.13 in3.3 mm
04:35 AM 45.9°F7.7°C 39.8°F4.3°C 79% Calm Calm -- 29.25 in990.5 mb - 0.00 in0.0 mm 0.13 in3.3 mm
04:40 AM 45.9°F7.7°C 39.8°F4.3°C 79% Calm Calm -- 29.24 in990.2 mb - 0.02 in0.5 mm 0.15 in3.8 mm
04:45 AM 45.9°F7.7°C 39.8°F4.3°C 79% Calm Calm -- 29.24 in990.2 mb - 0.01 in0.3 mm 0.15 in3.8 mm
04:50 AM 45.8°F7.7°C 39.7°F4.3°C 79% Calm Calm -- 29.25 in990.5 mb - 0.00 in0.0 mm 0.15 in3.8 mm
04:55 AM 45.8°F7.7°C 39.7°F4.3°C 79% Calm Calm -- 29.24 in990.2 mb - 0.01 in0.3 mm 0.16 in4.1 mm
05:00 AM 45.8°F7.7°C 39.7°F4.3°C 79% Calm Calm -- 29.25 in990.5 mb - 0.00 in0.0 mm 0.16 in4.1 mm
05:05 AM 45.8°F7.7°C 39.7°F4.3°C 79% Calm Calm -- 29.24 in990.2 mb - 0.00 in0.0 mm 0.16 in4.1 mm
05:10 AM 45.8°F7.7°C 39.7°F4.3°C 79% Calm Calm -- 29.25 in990.5 mb - 0.00 in0.0 mm 0.16 in4.1 mm
05:15 AM 45.8°F7.7°C 39.7°F4.3°C 79% Calm Calm -- 29.25 in990.5 mb - 0.01 in0.3 mm 0.17 in4.3 mm
05:20 AM 45.8°F7.7°C 39.7°F4.3°C 79% Calm Calm -- 29.25 in990.5 mb - 0.00 in0.0 mm 0.17 in4.3 mm
05:25 AM 45.6°F7.6°C 39.5°F4.2°C 79% 3.5 mph W5.6 kmh W 10.4 mph16.7 kmh 29.25 in990.5 mb - 0.00 in0.0 mm 0.17 in4.3 mm
05:30 AM 45.1°F7.3°C 39.0°F3.9°C 79% 4.6 mph W7.4 kmh W 9.2 mph14.8 kmh 29.26 in990.9 mb - 0.00 in0.0 mm 0.17 in4.3 mm
05:35 AM 44.8°F7.1°C 38.7°F3.7°C 79% 5.8 mph WSW9.3 kmh WSW 9.2 mph14.8 kmh 29.26 in990.9 mb - 0.00 in0.0 mm 0.17 in4.3 mm
05:40 AM 44.7°F7.1°C 38.6°F3.7°C 79% 5.8 mph WSW9.3 kmh WSW 12.7 mph20.4 kmh 29.26 in990.9 mb - 0.01 in0.3 mm 0.17 in4.3 mm
05:45 AM 44.5°F6.9°C 38.4°F3.6°C 79% 4.6 mph WSW7.4 kmh WSW 8.1 mph13.0 kmh 29.26 in990.9 mb - 0.00 in0.0 mm 0.17 in4.3 mm
05:50 AM 44.5°F6.9°C 38.4°F3.6°C 79% 5.8 mph WSW9.3 kmh WSW 9.2 mph14.8 kmh 29.26 in990.9 mb - 0.00 in0.0 mm 0.17 in4.3 mm
05:55 AM 44.4°F6.9°C 38.3°F3.5°C 79% 5.8 mph W9.3 kmh W 9.2 mph14.8 kmh 29.27 in991.2 mb - 0.01 in0.3 mm 0.18 in4.6 mm
06:00 AM 44.3°F6.8°C 38.2°F3.4°C 79% 5.8 mph W9.3 kmh W 13.8 mph22.2 kmh 29.27 in991.2 mb - 0.00 in0.0 mm 0.18 in4.6 mm
06:05 AM 44.2°F6.8°C 38.1°F3.4°C 79% 11.5 mph WSW18.5 kmh WSW 15.0 mph24.1 kmh 29.27 in991.2 mb - 0.00 in0.0 mm 0.18 in4.6 mm
06:10 AM 44.2°F6.8°C 38.1°F3.4°C 79% 10.4 mph WSW16.7 kmh WSW 13.8 mph22.2 kmh 29.27 in991.2 mb - 0.01 in0.3 mm 0.19 in4.8 mm
06:15 AM 44.2°F6.8°C 38.1°F3.4°C 79% 8.1 mph W13.0 kmh W 11.5 mph18.5 kmh 29.27 in991.2 mb - 0.00 in0.0 mm 0.19 in4.8 mm
06:20 AM 44.1°F6.7°C 38.0°F3.3°C 79% 8.1 mph W13.0 kmh W 13.8 mph22.2 kmh 29.27 in991.2 mb - 0.00 in0.0 mm 0.19 in4.8 mm
06:25 AM 44.0°F6.7°C 37.9°F3.3°C 79% 9.2 mph WSW14.8 kmh WSW 15.0 mph24.1 kmh 29.27 in991.2 mb - 0.00 in0.0 mm 0.19 in4.8 mm
06:30 AM 44.1°F6.7°C 38.0°F3.3°C 79% 10.4 mph WSW16.7 kmh WSW 15.0 mph24.1 kmh 29.27 in991.2 mb - 0.00 in0.0 mm 0.19 in4.8 mm
06:35 AM 44.2°F6.8°C 38.1°F3.4°C 79% 6.9 mph W11.1 kmh W 11.5 mph18.5 kmh 29.28 in991.5 mb - 0.00 in0.0 mm 0.19 in4.8 mm
06:40 AM 44.3°F6.8°C 38.2°F3.4°C 79% 6.9 mph W11.1 kmh W 9.2 mph14.8 kmh 29.28 in991.5 mb - 0.00 in0.0 mm 0.19 in4.8 mm
06:45 AM 44.6°F7.0°C 38.5°F3.6°C 79% 6.9 mph WSW11.1 kmh WSW 11.5 mph18.5 kmh 29.29 in991.9 mb - 0.00 in0.0 mm 0.19 in4.8 mm
06:50 AM 44.7°F7.1°C 38.6°F3.7°C 79% 9.2 mph WSW14.8 kmh WSW 13.8 mph22.2 kmh 29.29 in991.9 mb - 0.00 in0.0 mm 0.19 in4.8 mm
06:55 AM 44.7°F7.1°C 38.6°F3.7°C 79% 9.2 mph WSW14.8 kmh WSW 13.8 mph22.2 kmh 29.29 in991.9 mb - 0.00 in0.0 mm 0.19 in4.8 mm
07:00 AM 44.6°F7.0°C 38.5°F3.6°C 79% 8.1 mph WSW13.0 kmh WSW 11.5 mph18.5 kmh 29.30 in992.2 mb - 0.00 in0.0 mm 0.19 in4.8 mm
07:05 AM 44.7°F7.1°C 38.6°F3.7°C 79% 8.1 mph WSW13.0 kmh WSW 13.8 mph22.2 kmh 29.30 in992.2 mb - 0.00 in0.0 mm 0.19 in4.8 mm
07:10 AM 44.7°F7.1°C 38.6°F3.7°C 79% 8.1 mph WSW13.0 kmh WSW 9.2 mph14.8 kmh 29.30 in992.2 mb - 0.00 in0.0 mm 0.19 in4.8 mm
07:15 AM 44.6°F7.0°C 38.2°F3.4°C 78% 5.8 mph WSW9.3 kmh WSW 10.4 mph16.7 kmh 29.31 in992.6 mb - 0.00 in0.0 mm 0.19 in4.8 mm
07:20 AM 44.5°F6.9°C 38.0°F3.3°C 78% 9.2 mph W14.8 kmh W 15.0 mph24.1 kmh 29.31 in992.6 mb - 0.00 in0.0 mm 0.19 in4.8 mm
07:25 AM 44.3°F6.8°C 37.9°F3.3°C 78% 9.2 mph WSW14.8 kmh WSW 12.7 mph20.4 kmh 29.31 in992.6 mb - 0.01 in0.3 mm 0.20 in5.1 mm
07:30 AM 44.3°F6.8°C 37.9°F3.3°C 78% 11.5 mph W18.5 kmh W 13.8 mph22.2 kmh 29.31 in992.6 mb - 0.00 in0.0 mm 0.20 in5.1 mm
07:35 AM 44.2°F6.8°C 37.8°F3.2°C 78% 9.2 mph W14.8 kmh W 11.5 mph18.5 kmh 29.31 in992.6 mb - 0.00 in0.0 mm 0.20 in5.1 mm
07:40 AM 44.4°F6.9°C 37.9°F3.3°C 78% 8.1 mph WSW13.0 kmh WSW 12.7 mph20.4 kmh 29.32 in992.9 mb - 0.00 in0.0 mm 0.20 in5.1 mm
07:45 AM 44.4°F6.9°C 38.0°F3.3°C 78% 9.2 mph W14.8 kmh W 11.5 mph18.5 kmh 29.32 in992.9 mb - 0.00 in0.0 mm 0.20 in5.1 mm
07:50 AM 44.5°F6.9°C 38.1°F3.4°C 78% 9.2 mph WSW14.8 kmh WSW 12.7 mph20.4 kmh 29.32 in992.9 mb - 0.00 in0.0 mm 0.20 in5.1 mm
07:55 AM 44.6°F7.0°C 38.2°F3.4°C 78% 10.4 mph WSW16.7 kmh WSW 13.8 mph22.2 kmh 29.33 in993.2 mb - 0.00 in0.0 mm 0.20 in5.1 mm
08:00 AM 44.8°F7.1°C 38.4°F3.6°C 78% 8.1 mph WSW13.0 kmh WSW 13.8 mph22.2 kmh 29.33 in993.2 mb - 0.00 in0.0 mm 0.20 in5.1 mm
08:05 AM 44.9°F7.2°C 38.5°F3.6°C 78% 8.1 mph W13.0 kmh W 11.5 mph18.5 kmh 29.34 in993.6 mb - 0.00 in0.0 mm 0.20 in5.1 mm
08:10 AM 45.0°F7.2°C 38.6°F3.7°C 78% 9.2 mph WSW14.8 kmh WSW 11.5 mph18.5 kmh 29.34 in993.6 mb - 0.00 in0.0 mm 0.20 in5.1 mm
08:15 AM 45.1°F7.3°C 38.6°F3.7°C 78% 9.2 mph WSW14.8 kmh WSW 11.5 mph18.5 kmh 29.34 in993.6 mb - 0.00 in0.0 mm 0.20 in5.1 mm
08:20 AM 45.2°F7.3°C 38.7°F3.7°C 78% 8.1 mph WSW13.0 kmh WSW 11.5 mph18.5 kmh 29.35 in993.9 mb - 0.00 in0.0 mm 0.20 in5.1 mm
08:25 AM 45.4°F7.4°C 38.9°F3.8°C 78% 8.1 mph WSW13.0 kmh WSW 11.5 mph18.5 kmh 29.35 in993.9 mb - 0.00 in0.0 mm 0.20 in5.1 mm
08:30 AM 45.6°F7.6°C 39.2°F4.0°C 78% 5.8 mph W9.3 kmh W 10.4 mph16.7 kmh 29.35 in993.9 mb - 0.00 in0.0 mm 0.20 in5.1 mm
08:35 AM 46.0°F7.8°C 39.5°F4.2°C 78% 5.8 mph WSW9.3 kmh WSW 13.8 mph22.2 kmh 29.35 in993.9 mb - 0.00 in0.0 mm 0.20 in5.1 mm
08:40 AM 46.4°F8.0°C 39.9°F4.4°C 78% 5.8 mph WSW9.3 kmh WSW 10.4 mph16.7 kmh 29.35 in993.9 mb - 0.00 in0.0 mm 0.20 in5.1 mm
08:45 AM 46.8°F8.2°C 40.3°F4.6°C 78% 5.8 mph SW9.3 kmh SW 10.4 mph16.7 kmh 29.35 in993.9 mb - 0.00 in0.0 mm 0.20 in5.1 mm
08:50 AM 47.2°F8.4°C 40.7°F4.8°C 78% 6.9 mph WSW11.1 kmh WSW 9.2 mph14.8 kmh 29.35 in993.9 mb - 0.00 in0.0 mm 0.20 in5.1 mm
08:55 AM 47.7°F8.7°C 41.1°F5.1°C 78% 6.9 mph WSW11.1 kmh WSW 12.7 mph20.4 kmh 29.36 in994.2 mb - 0.00 in0.0 mm 0.20 in5.1 mm
09:00 AM 48.1°F8.9°C 41.2°F5.1°C 77% 6.9 mph WSW11.1 kmh WSW 9.2 mph14.8 kmh 29.36 in994.2 mb - 0.00 in0.0 mm 0.20 in5.1 mm
09:05 AM 48.5°F9.2°C 41.6°F5.3°C 77% 5.8 mph W9.3 kmh W 11.5 mph18.5 kmh 29.36 in994.2 mb - 0.00 in0.0 mm 0.20 in5.1 mm
09:10 AM 48.7°F9.3°C 41.8°F5.4°C 77% 8.1 mph W13.0 kmh W 11.5 mph18.5 kmh 29.37 in994.6 mb - 0.00 in0.0 mm 0.20 in5.1 mm
09:15 AM 48.5°F9.2°C 41.3°F5.2°C 76% 9.2 mph WSW14.8 kmh WSW 12.7 mph20.4 kmh 29.37 in994.6 mb - 0.00 in0.0 mm 0.20 in5.1 mm
09:20 AM 48.4°F9.1°C 41.5°F5.3°C 77% 8.1 mph WSW13.0 kmh WSW 11.5 mph18.5 kmh 29.37 in994.6 mb - 0.00 in0.0 mm 0.20 in5.1 mm
09:25 AM 48.0°F8.9°C 41.2°F5.1°C 77% 6.9 mph WSW11.1 kmh WSW 10.4 mph16.7 kmh 29.37 in994.6 mb - 0.00 in0.0 mm 0.20 in5.1 mm
09:30 AM 47.5°F8.6°C 40.7°F4.8°C 77% 5.8 mph WSW9.3 kmh WSW 6.9 mph11.1 kmh 29.37 in994.6 mb - 0.00 in0.0 mm 0.20 in5.1 mm
09:35 AM 47.3°F8.5°C 40.8°F4.9°C 78% 4.6 mph WSW7.4 kmh WSW 8.1 mph13.0 kmh 29.38 in994.9 mb - 0.00 in0.0 mm 0.20 in5.1 mm
09:40 AM 47.3°F8.5°C 40.5°F4.7°C 77% 4.6 mph WSW7.4 kmh WSW 6.9 mph11.1 kmh 29.38 in994.9 mb - 0.00 in0.0 mm 0.20 in5.1 mm
09:45 AM 47.4°F8.6°C 40.6°F4.8°C 77% 3.5 mph WSW5.6 kmh WSW 9.2 mph14.8 kmh 29.38 in994.9 mb - 0.00 in0.0 mm 0.20 in5.1 mm
09:50 AM 47.6°F8.7°C 40.7°F4.8°C 77% 4.6 mph WSW7.4 kmh WSW 9.2 mph14.8 kmh 29.38 in994.9 mb - 0.00 in0.0 mm 0.20 in5.1 mm
09:55 AM 47.7°F8.7°C 40.8°F4.9°C 77% 4.6 mph WSW7.4 kmh WSW 10.4 mph16.7 kmh 29.39 in995.3 mb - 0.00 in0.0 mm 0.20 in5.1 mm
10:00 AM 47.5°F8.6°C 40.6°F4.8°C 77% 6.9 mph W11.1 kmh W 11.5 mph18.5 kmh 29.39 in995.3 mb - 0.00 in0.0 mm 0.20 in5.1 mm
10:05 AM 47.3°F8.5°C 40.4°F4.7°C 77% 6.9 mph WSW11.1 kmh WSW 12.7 mph20.4 kmh 29.39 in995.3 mb - 0.00 in0.0 mm 0.20 in5.1 mm
10:10 AM 47.1°F8.4°C 40.5°F4.7°C 78% 9.2 mph WSW14.8 kmh WSW 11.5 mph18.5 kmh 29.39 in995.3 mb - 0.00 in0.0 mm 0.20 in5.1 mm
10:15 AM 46.8°F8.2°C 40.3°F4.6°C 78% 9.2 mph WSW14.8 kmh WSW 9.2 mph14.8 kmh 29.40 in995.6 mb - 0.00 in0.0 mm 0.20 in5.1 mm
10:20 AM 46.3°F7.9°C 39.8°F4.3°C 78% 11.5 mph WSW18.5 kmh WSW 15.0 mph24.1 kmh 29.40 in995.6 mb - 0.00 in0.0 mm 0.20 in5.1 mm
10:25 AM 45.7°F7.6°C 39.2°F4.0°C 78% 5.8 mph W9.3 kmh W 12.7 mph20.4 kmh 29.41 in995.9 mb - 0.01 in0.3 mm 0.21 in5.3 mm
10:30 AM 45.4°F7.4°C 38.9°F3.8°C 78% 4.6 mph WNW7.4 kmh WNW 8.1 mph13.0 kmh 29.41 in995.9 mb - 0.01 in0.3 mm 0.22 in5.6 mm
10:35 AM 45.4°F7.4°C 39.0°F3.9°C 78% 3.5 mph WNW5.6 kmh WNW 6.9 mph11.1 kmh 29.41 in995.9 mb - 0.00 in0.0 mm 0.22 in5.6 mm
10:40 AM 45.7°F7.6°C 39.3°F4.1°C 78% 3.5 mph W5.6 kmh W 8.1 mph13.0 kmh 29.41 in995.9 mb - 0.00 in0.0 mm 0.22 in5.6 mm
10:45 AM 46.0°F7.8°C 39.6°F4.2°C 78% 8.1 mph W13.0 kmh W 11.5 mph18.5 kmh 29.41 in995.9 mb - 0.00 in0.0 mm 0.22 in5.6 mm
10:50 AM 46.4°F8.0°C 39.6°F4.2°C 77% 9.2 mph W14.8 kmh W 13.8 mph22.2 kmh 29.42 in996.3 mb - 0.00 in0.0 mm 0.22 in5.6 mm
10:55 AM 47.0°F8.3°C 40.1°F4.5°C 77% 4.6 mph W7.4 kmh W 9.2 mph14.8 kmh 29.42 in996.3 mb - 0.00 in0.0 mm 0.22 in5.6 mm
11:00 AM 47.7°F8.7°C 39.9°F4.4°C 74% 4.6 mph W7.4 kmh W 6.9 mph11.1 kmh 29.42 in996.3 mb - 0.00 in0.0 mm 0.22 in5.6 mm
11:05 AM 48.8°F9.3°C 41.2°F5.1°C 75% 5.8 mph WNW9.3 kmh WNW 8.1 mph13.0 kmh 29.42 in996.3 mb - 0.00 in0.0 mm 0.22 in5.6 mm
11:10 AM 49.6°F9.8°C 41.3°F5.2°C 73% 9.2 mph W14.8 kmh W 13.8 mph22.2 kmh 29.43 in996.6 mb - 0.00 in0.0 mm 0.22 in5.6 mm
11:15 AM 50.0°F10.0°C 39.5°F4.2°C 67% 8.1 mph WNW13.0 kmh WNW 11.5 mph18.5 kmh 29.43 in996.6 mb - 0.00 in0.0 mm 0.22 in5.6 mm
11:20 AM 50.1°F10.1°C 38.8°F3.8°C 65% 5.8 mph WNW9.3 kmh WNW 9.2 mph14.8 kmh 29.43 in996.6 mb - 0.00 in0.0 mm 0.22 in5.6 mm
11:25 AM 50.1°F10.1°C 38.8°F3.8°C 65% 6.9 mph W11.1 kmh W 11.5 mph18.5 kmh 29.43 in996.6 mb - 0.00 in0.0 mm 0.22 in5.6 mm
11:30 AM 50.0°F10.0°C 38.3°F3.5°C 64% 6.9 mph WSW11.1 kmh WSW 11.5 mph18.5 kmh 29.43 in996.6 mb - 0.00 in0.0 mm 0.22 in5.6 mm
11:35 AM 50.2°F10.1°C 38.9°F3.8°C 65% 10.4 mph W16.7 kmh W 15.0 mph24.1 kmh 29.44 in997.0 mb - 0.00 in0.0 mm 0.22 in5.6 mm
11:40 AM 50.1°F10.1°C 36.7°F2.6°C 60% 10.4 mph W16.7 kmh W 16.1 mph25.9 kmh 29.44 in997.0 mb - 0.00 in0.0 mm 0.22 in5.6 mm
11:45 AM 49.9°F9.9°C 35.7°F2.1°C 58% 8.1 mph W13.0 kmh W 12.7 mph20.4 kmh 29.45 in997.3 mb - 0.00 in0.0 mm 0.22 in5.6 mm
11:50 AM 50.1°F10.1°C 35.9°F2.2°C 58% 10.4 mph W16.7 kmh W 15.0 mph24.1 kmh 29.45 in997.3 mb - 0.00 in0.0 mm 0.22 in5.6 mm
11:55 AM 50.8°F10.4°C 37.4°F3.0°C 60% 6.9 mph WNW11.1 kmh WNW 11.5 mph18.5 kmh 29.45 in997.3 mb - 0.00 in0.0 mm 0.22 in5.6 mm
12:00 PM 52.3°F11.3°C 37.1°F2.8°C 56% 11.5 mph WSW18.5 kmh WSW 19.6 mph31.5 kmh 29.45 in997.3 mb - 0.00 in0.0 mm 0.22 in5.6 mm
12:05 PM 52.7°F11.5°C 35.1°F1.7°C 51% 8.1 mph W13.0 kmh W 11.5 mph18.5 kmh 29.45 in997.3 mb - 0.00 in0.0 mm 0.22 in5.6 mm
12:10 PM 52.5°F11.4°C 35.8°F2.1°C 53% 11.5 mph W18.5 kmh W 17.3 mph27.8 kmh 29.45 in997.3 mb - 0.00 in0.0 mm 0.22 in5.6 mm
12:15 PM 53.3°F11.8°C 35.7°F2.1°C 51% 11.5 mph WSW18.5 kmh WSW 16.1 mph25.9 kmh 29.45 in997.3 mb - 0.00 in0.0 mm 0.22 in5.6 mm
12:20 PM 53.5°F11.9°C 35.8°F2.1°C 51% 12.7 mph WSW20.4 kmh WSW 17.3 mph27.8 kmh 29.45 in997.3 mb - 0.00 in0.0 mm 0.22 in5.6 mm
12:25 PM 53.8°F12.1°C 35.6°F2.0°C 50% 12.7 mph WSW20.4 kmh WSW 16.1 mph25.9 kmh 29.46 in997.6 mb - 0.00 in0.0 mm 0.22 in5.6 mm
12:30 PM 53.3°F11.8°C 34.1°F1.2°C 48% 10.4 mph WSW16.7 kmh WSW 17.3 mph27.8 kmh 29.46 in997.6 mb - 0.00 in0.0 mm 0.22 in5.6 mm
12:35 PM 52.6°F11.4°C 34.0°F1.1°C 49% 11.5 mph WSW18.5 kmh WSW 16.1 mph25.9 kmh 29.46 in997.6 mb - 0.00 in0.0 mm 0.22 in5.6 mm
12:40 PM 52.4°F11.3°C 34.8°F1.6°C 51% 6.9 mph WNW11.1 kmh WNW 11.5 mph18.5 kmh 29.46 in997.6 mb - 0.00 in0.0 mm 0.22 in5.6 mm
12:45 PM 52.7°F11.5°C 36.1°F2.3°C 53% 8.1 mph WSW13.0 kmh WSW 12.7 mph20.4 kmh 29.46 in997.6 mb - 0.00 in0.0 mm 0.22 in5.6 mm
12:50 PM 53.5°F11.9°C 35.8°F2.1°C 51% 11.5 mph WNW18.5 kmh WNW 15.0 mph24.1 kmh 29.46 in997.6 mb - 0.00 in0.0 mm 0.22 in5.6 mm
12:55 PM 54.0°F12.2°C 36.3°F2.4°C 51% 8.1 mph WSW13.0 kmh WSW 12.7 mph20.4 kmh 29.47 in998.0 mb - 0.00 in0.0 mm 0.22 in5.6 mm
01:00 PM 53.8°F12.1°C 35.6°F2.0°C 50% 11.5 mph WSW18.5 kmh WSW 15.0 mph24.1 kmh 29.47 in998.0 mb - 0.00 in0.0 mm 0.22 in5.6 mm
01:05 PM 52.7°F11.5°C 35.1°F1.7°C 51% 10.4 mph W16.7 kmh W 13.8 mph22.2 kmh 29.47 in998.0 mb - 0.00 in0.0 mm 0.22 in5.6 mm
01:10 PM 52.5°F11.4°C 34.4°F1.3°C 50% 13.8 mph WSW22.2 kmh WSW 19.6 mph31.5 kmh 29.47 in998.0 mb - 0.00 in0.0 mm 0.22 in5.6 mm
01:15 PM 52.9°F11.6°C 34.8°F1.6°C 50% 11.5 mph W18.5 kmh W 19.6 mph31.5 kmh 29.47 in998.0 mb - 0.00 in0.0 mm 0.22 in5.6 mm
01:20 PM 52.5°F11.4°C 35.4°F1.9°C 52% 10.4 mph WSW16.7 kmh WSW 13.8 mph22.2 kmh 29.48 in998.3 mb - 0.00 in0.0 mm 0.22 in5.6 mm
01:25 PM 52.7°F11.5°C 35.5°F1.9°C 52% 9.2 mph WNW14.8 kmh WNW 13.8 mph22.2 kmh 29.48 in998.3 mb - 0.00 in0.0 mm 0.22 in5.6 mm
01:30 PM 53.6°F12.0°C 34.9°F1.6°C 49% 10.4 mph WNW16.7 kmh WNW 17.3 mph27.8 kmh 29.48 in998.3 mb - 0.00 in0.0 mm 0.22 in5.6 mm
01:35 PM 53.5°F11.9°C 34.8°F1.6°C 49% 11.5 mph WSW18.5 kmh WSW 18.4 mph29.6 kmh 29.48 in998.3 mb - 0.00 in0.0 mm 0.22 in5.6 mm
01:40 PM 53.4°F11.9°C 35.7°F2.1°C 51% 10.4 mph WSW16.7 kmh WSW 11.5 mph18.5 kmh 29.48 in998.3 mb - 0.00 in0.0 mm 0.22 in5.6 mm
01:45 PM 53.3°F11.8°C 35.6°F2.0°C 51% 11.5 mph WSW18.5 kmh WSW 19.6 mph31.5 kmh 29.48 in998.3 mb - 0.00 in0.0 mm 0.22 in5.6 mm
01:50 PM 53.0°F11.7°C 35.8°F2.1°C 52% 9.2 mph WSW14.8 kmh WSW 19.6 mph31.5 kmh 29.49 in998.6 mb - 0.00 in0.0 mm 0.22 in5.6 mm
01:55 PM 52.3°F11.3°C 35.2°F1.8°C 52% 9.2 mph W14.8 kmh W 15.0 mph24.1 kmh 29.49 in998.6 mb - 0.00 in0.0 mm 0.22 in5.6 mm
02:00 PM 52.3°F11.3°C 36.6°F2.6°C 55% 10.4 mph W16.7 kmh W 11.5 mph18.5 kmh 29.49 in998.6 mb - 0.00 in0.0 mm 0.22 in5.6 mm
02:05 PM 52.3°F11.3°C 36.6°F2.6°C 55% 5.8 mph WSW9.3 kmh WSW 10.4 mph16.7 kmh 29.49 in998.6 mb - 0.00 in0.0 mm 0.22 in5.6 mm
02:10 PM 52.5°F11.4°C 37.3°F2.9°C 56% 9.2 mph WSW14.8 kmh WSW 12.7 mph20.4 kmh 29.49 in998.6 mb - 0.00 in0.0 mm 0.22 in5.6 mm
02:15 PM 52.9°F11.6°C 37.2°F2.9°C 55% 8.1 mph WNW13.0 kmh WNW 11.5 mph18.5 kmh 29.49 in998.6 mb - 0.00 in0.0 mm 0.22 in5.6 mm
02:20 PM 53.0°F11.7°C 36.8°F2.7°C 54% 8.1 mph WSW13.0 kmh WSW 13.8 mph22.2 kmh 29.49 in998.6 mb - 0.00 in0.0 mm 0.22 in5.6 mm
02:25 PM 54.2°F12.3°C 36.9°F2.7°C 52% 11.5 mph WSW18.5 kmh WSW 17.3 mph27.8 kmh 29.49 in998.6 mb - 0.00 in0.0 mm 0.22 in5.6 mm
02:30 PM 55.0°F12.8°C 37.2°F2.9°C 51% 11.5 mph W18.5 kmh W 17.3 mph27.8 kmh 29.49 in998.6 mb - 0.00 in0.0 mm 0.22 in5.6 mm
02:35 PM 55.5°F13.1°C 37.1°F2.8°C 50% 12.7 mph WSW20.4 kmh WSW 15.0 mph24.1 kmh 29.49 in998.6 mb - 0.00 in0.0 mm 0.22 in5.6 mm
02:40 PM 55.2°F12.9°C 38.8°F3.8°C 54% 12.7 mph SW20.4 kmh SW 21.9 mph35.2 kmh 29.50 in999.0 mb - 0.00 in0.0 mm 0.22 in5.6 mm
02:45 PM 55.2°F12.9°C 39.3°F4.1°C 55% 13.8 mph WSW22.2 kmh WSW 17.3 mph27.8 kmh 29.50 in999.0 mb - 0.00 in0.0 mm 0.22 in5.6 mm
02:50 PM 55.0°F12.8°C 38.6°F3.7°C 54% 13.8 mph WSW22.2 kmh WSW 20.7 mph33.3 kmh 29.50 in999.0 mb - 0.00 in0.0 mm 0.22 in5.6 mm
02:55 PM 54.0°F12.2°C 38.1°F3.4°C 55% 12.7 mph SW20.4 kmh SW 19.6 mph31.5 kmh 29.50 in999.0 mb - 0.00 in0.0 mm 0.22 in5.6 mm
03:00 PM 53.3°F11.8°C 38.5°F3.6°C 57% 12.7 mph WSW20.4 kmh WSW 23.0 mph37.0 kmh 29.51 in999.3 mb - 0.00 in0.0 mm 0.22 in5.6 mm
03:05 PM 52.7°F11.5°C 38.8°F3.8°C 59% 10.4 mph NW16.7 kmh NW 13.8 mph22.2 kmh 29.51 in999.3 mb - 0.00 in0.0 mm 0.22 in5.6 mm
03:10 PM 52.4°F11.3°C 38.9°F3.8°C 60% 8.1 mph W13.0 kmh W 13.8 mph22.2 kmh 29.51 in999.3 mb - 0.00 in0.0 mm 0.22 in5.6 mm
03:15 PM 52.5°F11.4°C 38.5°F3.6°C 59% 5.8 mph W9.3 kmh W 5.8 mph9.3 kmh 29.51 in999.3 mb - 0.00 in0.0 mm 0.22 in5.6 mm
03:20 PM 53.0°F11.7°C 38.6°F3.7°C 58% 6.9 mph W11.1 kmh W 10.4 mph16.7 kmh 29.51 in999.3 mb - 0.00 in0.0 mm 0.22 in5.6 mm
03:25 PM 53.5°F11.9°C 39.5°F4.2°C 59% 5.8 mph WNW9.3 kmh WNW 11.5 mph18.5 kmh 29.51 in999.3 mb - 0.00 in0.0 mm 0.22 in5.6 mm
03:30 PM 54.2°F12.3°C 39.7°F4.3°C 58% 10.4 mph WSW16.7 kmh WSW 24.2 mph38.9 kmh 29.51 in999.3 mb - 0.00 in0.0 mm 0.22 in5.6 mm
03:35 PM 55.0°F12.8°C 38.6°F3.7°C 54% 12.7 mph WSW20.4 kmh WSW 18.4 mph29.6 kmh 29.52 in999.7 mb - 0.00 in0.0 mm 0.22 in5.6 mm
03:40 PM 54.5°F12.5°C 38.7°F3.7°C 55% 11.5 mph WSW18.5 kmh WSW 16.1 mph25.9 kmh 29.52 in999.7 mb - 0.00 in0.0 mm 0.22 in5.6 mm
03:45 PM 54.2°F12.3°C 37.9°F3.3°C 54% 16.1 mph WSW25.9 kmh WSW 26.5 mph42.6 kmh 29.52 in999.7 mb - 0.00 in0.0 mm 0.22 in5.6 mm
03:50 PM 54.0°F12.2°C 38.2°F3.4°C 55% 11.5 mph WSW18.5 kmh WSW 17.3 mph27.8 kmh 29.52 in999.7 mb - 0.00 in0.0 mm 0.22 in5.6 mm
03:55 PM 54.3°F12.4°C 38.4°F3.6°C 55% 9.2 mph WSW14.8 kmh WSW 12.7 mph20.4 kmh 29.52 in999.7 mb - 0.00 in0.0 mm 0.22 in5.6 mm
04:00 PM 53.7°F12.1°C 38.8°F3.8°C 57% 10.4 mph WSW16.7 kmh WSW 12.7 mph20.4 kmh 29.52 in999.7 mb - 0.00 in0.0 mm 0.22 in5.6 mm
04:05 PM 53.6°F12.0°C 37.8°F3.2°C 55% 10.4 mph WSW16.7 kmh WSW 16.1 mph25.9 kmh 29.52 in999.7 mb - 0.00 in0.0 mm 0.22 in5.6 mm
04:10 PM 53.5°F11.9°C 38.6°F3.7°C 57% 11.5 mph SW18.5 kmh SW 16.1 mph25.9 kmh 29.53 in1000.0 mb - 0.00 in0.0 mm 0.22 in5.6 mm
04:15 PM 53.3°F11.8°C 38.4°F3.6°C 57% 10.4 mph WSW16.7 kmh WSW 19.6 mph31.5 kmh 29.53 in1000.0 mb - 0.00 in0.0 mm 0.22 in5.6 mm
04:20 PM 53.6°F12.0°C 38.7°F3.7°C 57% 11.5 mph SW18.5 kmh SW 16.1 mph25.9 kmh 29.53 in1000.0 mb - 0.00 in0.0 mm 0.22 in5.6 mm
04:25 PM 53.1°F11.7°C 36.9°F2.7°C 54% 17.3 mph WSW27.8 kmh WSW 19.6 mph31.5 kmh 29.54 in1000.3 mb - 0.00 in0.0 mm 0.22 in5.6 mm
04:30 PM 53.1°F11.7°C 37.3°F2.9°C 55% 13.8 mph WSW22.2 kmh WSW 19.6 mph31.5 kmh 29.54 in1000.3 mb - 0.00 in0.0 mm 0.22 in5.6 mm
04:35 PM 53.2°F11.8°C 37.4°F3.0°C 55% 13.8 mph WSW22.2 kmh WSW 20.7 mph33.3 kmh 29.54 in1000.3 mb - 0.00 in0.0 mm 0.22 in5.6 mm
04:40 PM 52.8°F11.6°C 37.5°F3.1°C 56% 12.7 mph WSW20.4 kmh WSW 18.4 mph29.6 kmh 29.55 in1000.7 mb - 0.00 in0.0 mm 0.22 in5.6 mm
04:45 PM 51.8°F11.0°C 36.6°F2.6°C 56% 15.0 mph WSW24.1 kmh WSW 20.7 mph33.3 kmh 29.55 in1000.7 mb - 0.00 in0.0 mm 0.22 in5.6 mm
04:50 PM 51.2°F10.7°C 37.4°F3.0°C 59% 12.7 mph WSW20.4 kmh WSW 16.1 mph25.9 kmh 29.55 in1000.7 mb - 0.00 in0.0 mm 0.22 in5.6 mm
04:55 PM 51.4°F10.8°C 37.1°F2.8°C 58% 16.1 mph WSW25.9 kmh WSW 24.2 mph38.9 kmh 29.55 in1000.7 mb - 0.00 in0.0 mm 0.22 in5.6 mm
05:00 PM 51.4°F10.8°C 38.0°F3.3°C 60% 10.4 mph WSW16.7 kmh WSW 16.1 mph25.9 kmh 29.56 in1001.0 mb - 0.00 in0.0 mm 0.22 in5.6 mm
05:05 PM 51.2°F10.7°C 38.2°F3.4°C 61% 12.7 mph WSW20.4 kmh WSW 18.4 mph29.6 kmh 29.56 in1001.0 mb - 0.00 in0.0 mm 0.22 in5.6 mm
05:10 PM 50.7°F10.4°C 38.1°F3.4°C 62% 10.4 mph WSW16.7 kmh WSW 16.1 mph25.9 kmh 29.57 in1001.4 mb - 0.00 in0.0 mm 0.22 in5.6 mm
05:15 PM 50.4°F10.2°C 38.2°F3.4°C 63% 10.4 mph WSW16.7 kmh WSW 15.0 mph24.1 kmh 29.57 in1001.4 mb - 0.00 in0.0 mm 0.22 in5.6 mm
05:20 PM 49.7°F9.8°C 38.0°F3.3°C 64% 8.1 mph WSW13.0 kmh WSW 17.3 mph27.8 kmh 29.57 in1001.4 mb - 0.00 in0.0 mm 0.22 in5.6 mm
05:25 PM 49.2°F9.6°C 38.7°F3.7°C 67% 15.0 mph W24.1 kmh W 19.6 mph31.5 kmh 29.57 in1001.4 mb - 0.00 in0.0 mm 0.22 in5.6 mm
05:30 PM 48.2°F9.0°C 39.2°F4.0°C 71% 12.7 mph WSW20.4 kmh WSW 19.6 mph31.5 kmh 29.57 in1001.4 mb - 0.00 in0.0 mm 0.22 in5.6 mm
05:35 PM 47.5°F8.6°C 38.9°F3.8°C 72% 11.5 mph W18.5 kmh W 19.6 mph31.5 kmh 29.58 in1001.7 mb - 0.00 in0.0 mm 0.22 in5.6 mm
05:40 PM 47.4°F8.6°C 38.5°F3.6°C 71% 17.3 mph NW27.8 kmh NW 23.0 mph37.0 kmh 29.58 in1001.7 mb - 0.00 in0.0 mm 0.22 in5.6 mm
05:45 PM 47.4°F8.6°C 38.5°F3.6°C 71% 10.4 mph NW16.7 kmh NW 13.8 mph22.2 kmh 29.59 in1002.0 mb - 0.00 in0.0 mm 0.22 in5.6 mm
05:50 PM 47.8°F8.8°C 38.1°F3.4°C 69% 6.9 mph W11.1 kmh W 11.5 mph18.5 kmh 29.59 in1002.0 mb - 0.00 in0.0 mm 0.22 in5.6 mm
05:55 PM 47.9°F8.8°C 37.9°F3.3°C 68% 5.8 mph W9.3 kmh W 10.4 mph16.7 kmh 29.59 in1002.0 mb - 0.00 in0.0 mm 0.22 in5.6 mm
06:00 PM 48.2°F9.0°C 38.1°F3.4°C 68% 6.9 mph W11.1 kmh W 11.5 mph18.5 kmh 29.59 in1002.0 mb - 0.00 in0.0 mm 0.22 in5.6 mm
06:05 PM 48.2°F9.0°C 37.4°F3.0°C 66% 8.1 mph W13.0 kmh W 11.5 mph18.5 kmh 29.59 in1002.0 mb - 0.00 in0.0 mm 0.22 in5.6 mm
06:10 PM 48.0°F8.9°C 36.8°F2.7°C 65% 6.9 mph WNW11.1 kmh WNW 10.4 mph16.7 kmh 29.60 in1002.4 mb - 0.00 in0.0 mm 0.22 in5.6 mm
06:15 PM 48.0°F8.9°C 36.8°F2.7°C 65% 5.8 mph WNW9.3 kmh WNW 8.1 mph13.0 kmh 29.60 in1002.4 mb - 0.00 in0.0 mm 0.22 in5.6 mm
06:20 PM 48.0°F8.9°C 36.8°F2.7°C 65% 3.5 mph W5.6 kmh W 5.8 mph9.3 kmh 29.60 in1002.4 mb - 0.00 in0.0 mm 0.22 in5.6 mm
06:25 PM 48.1°F8.9°C 36.9°F2.7°C 65% 5.8 mph WNW9.3 kmh WNW 8.1 mph13.0 kmh 29.60 in1002.4 mb - 0.00 in0.0 mm 0.22 in5.6 mm
06:30 PM 48.2°F9.0°C 37.0°F2.8°C 65% 6.9 mph W11.1 kmh W 13.8 mph22.2 kmh 29.60 in1002.4 mb - 0.00 in0.0 mm 0.22 in5.6 mm
06:35 PM 48.0°F8.9°C 36.8°F2.7°C 65% 8.1 mph WNW13.0 kmh WNW 10.4 mph16.7 kmh 29.61 in1002.7 mb - 0.00 in0.0 mm 0.22 in5.6 mm
06:40 PM 48.0°F8.9°C 36.8°F2.7°C 65% 5.8 mph WNW9.3 kmh WNW 11.5 mph18.5 kmh 29.61 in1002.7 mb - 0.00 in0.0 mm 0.22 in5.6 mm
06:45 PM 47.8°F8.8°C 36.6°F2.6°C 65% 6.9 mph W11.1 kmh W 10.4 mph16.7 kmh 29.61 in1002.7 mb - 0.00 in0.0 mm 0.22 in5.6 mm
06:50 PM 47.8°F8.8°C 37.0°F2.8°C 66% 4.6 mph WNW7.4 kmh WNW 5.8 mph9.3 kmh 29.62 in1003.0 mb - 0.00 in0.0 mm 0.22 in5.6 mm
06:55 PM 47.6°F8.7°C 37.2°F2.9°C 67% 3.5 mph WNW5.6 kmh WNW 4.6 mph7.4 kmh 29.62 in1003.0 mb - 0.00 in0.0 mm 0.22 in5.6 mm
07:00 PM 47.4°F8.6°C 37.0°F2.8°C 67% 2.3 mph W3.7 kmh W 3.5 mph5.6 kmh 29.62 in1003.0 mb - 0.00 in0.0 mm 0.22 in5.6 mm
07:05 PM 47.0°F8.3°C 37.0°F2.8°C 68% 5.8 mph WSW9.3 kmh WSW 9.2 mph14.8 kmh 29.62 in1003.0 mb - 0.00 in0.0 mm 0.22 in5.6 mm
07:10 PM 46.8°F8.2°C 36.4°F2.4°C 67% 4.6 mph W7.4 kmh W 8.1 mph13.0 kmh 29.63 in1003.4 mb - 0.00 in0.0 mm 0.22 in5.6 mm
07:15 PM 46.6°F8.1°C 36.2°F2.3°C 67% 3.5 mph W5.6 kmh W 5.8 mph9.3 kmh 29.63 in1003.4 mb - 0.00 in0.0 mm 0.22 in5.6 mm
07:20 PM 46.4°F8.0°C 36.0°F2.2°C 67% 5.8 mph W9.3 kmh W 9.2 mph14.8 kmh 29.63 in1003.4 mb - 0.00 in0.0 mm 0.22 in5.6 mm
07:25 PM 46.3°F7.9°C 35.9°F2.2°C 67% 5.8 mph W9.3 kmh W 10.4 mph16.7 kmh 29.63 in1003.4 mb - 0.00 in0.0 mm 0.22 in5.6 mm
07:30 PM 46.3°F7.9°C 35.9°F2.2°C 67% 5.8 mph W9.3 kmh W 10.4 mph16.7 kmh 29.63 in1003.4 mb - 0.00 in0.0 mm 0.22 in5.6 mm
07:35 PM 46.3°F7.9°C 35.9°F2.2°C 67% 4.6 mph W7.4 kmh W 11.5 mph18.5 kmh 29.64 in1003.7 mb - 0.00 in0.0 mm 0.22 in5.6 mm
07:40 PM 46.1°F7.8°C 36.2°F2.3°C 68% 5.8 mph WSW9.3 kmh WSW 5.8 mph9.3 kmh 29.64 in1003.7 mb - 0.00 in0.0 mm 0.22 in5.6 mm
07:45 PM 46.0°F7.8°C 36.0°F2.2°C 68% 4.6 mph W7.4 kmh W 5.8 mph9.3 kmh 29.64 in1003.7 mb - 0.00 in0.0 mm 0.22 in5.6 mm
07:50 PM 46.0°F7.8°C 36.0°F2.2°C 68% 5.8 mph WSW9.3 kmh WSW 11.5 mph18.5 kmh 29.65 in1004.1 mb - 0.00 in0.0 mm 0.22 in5.6 mm
07:55 PM 46.0°F7.8°C 36.0°F2.2°C 68% 11.5 mph WSW18.5 kmh WSW 16.1 mph25.9 kmh 29.65 in1004.1 mb - 0.00 in0.0 mm 0.22 in5.6 mm
08:00 PM 45.6°F7.6°C 36.0°F2.2°C 69% 5.8 mph W9.3 kmh W 9.2 mph14.8 kmh 29.66 in1004.4 mb - 0.00 in0.0 mm 0.22 in5.6 mm
08:05 PM 45.1°F7.3°C 35.9°F2.2°C 70% 6.9 mph W11.1 kmh W 10.4 mph16.7 kmh 29.66 in1004.4 mb - 0.00 in0.0 mm 0.22 in5.6 mm
08:10 PM 44.6°F7.0°C 36.2°F2.3°C 72% 5.8 mph W9.3 kmh W 9.2 mph14.8 kmh 29.66 in1004.4 mb - 0.00 in0.0 mm 0.22 in5.6 mm
08:15 PM 44.2°F6.8°C 35.7°F2.1°C 72% 5.8 mph W9.3 kmh W 8.1 mph13.0 kmh 29.67 in1004.7 mb - 0.00 in0.0 mm 0.22 in5.6 mm
08:20 PM 43.9°F6.6°C 35.8°F2.1°C 73% 4.6 mph W7.4 kmh W 9.2 mph14.8 kmh 29.67 in1004.7 mb - 0.00 in0.0 mm 0.22 in5.6 mm
08:25 PM 43.6°F6.4°C 35.9°F2.2°C 74% 4.6 mph W7.4 kmh W 8.1 mph13.0 kmh 29.67 in1004.7 mb - 0.00 in0.0 mm 0.22 in5.6 mm
08:30 PM 43.4°F6.3°C 35.7°F2.1°C 74% 4.6 mph W7.4 kmh W 8.1 mph13.0 kmh 29.68 in1005.1 mb - 0.00 in0.0 mm 0.22 in5.6 mm
08:35 PM 43.3°F6.3°C 35.9°F2.2°C 75% 3.5 mph W5.6 kmh W 8.1 mph13.0 kmh 29.68 in1005.1 mb - 0.00 in0.0 mm 0.22 in5.6 mm
08:40 PM 43.1°F6.2°C 35.7°F2.1°C 75% 9.2 mph W14.8 kmh W 11.5 mph18.5 kmh 29.68 in1005.1 mb - 0.00 in0.0 mm 0.22 in5.6 mm
08:45 PM 43.1°F6.2°C 35.7°F2.1°C 75% 4.6 mph W7.4 kmh W 8.1 mph13.0 kmh 29.68 in1005.1 mb - 0.00 in0.0 mm 0.22 in5.6 mm
08:50 PM 43.0°F6.1°C 35.6°F2.0°C 75% 6.9 mph W11.1 kmh W 8.1 mph13.0 kmh 29.68 in1005.1 mb - 0.00 in0.0 mm 0.22 in5.6 mm
08:55 PM 42.9°F6.1°C 35.5°F1.9°C 75% 8.1 mph WSW13.0 kmh WSW 11.5 mph18.5 kmh 29.68 in1005.1 mb - 0.00 in0.0 mm 0.22 in5.6 mm
09:00 PM 42.9°F6.1°C 35.9°F2.2°C 76% 5.8 mph WSW9.3 kmh WSW 9.2 mph14.8 kmh 29.68 in1005.1 mb - 0.00 in0.0 mm 0.22 in5.6 mm
09:05 PM 42.8°F6.0°C 35.8°F2.1°C 76% 3.5 mph W5.6 kmh W 5.8 mph9.3 kmh 29.68 in1005.1 mb - 0.00 in0.0 mm 0.22 in5.6 mm
09:10 PM 42.6°F5.9°C 35.6°F2.0°C 76% 5.8 mph WSW9.3 kmh WSW 6.9 mph11.1 kmh 29.69 in1005.4 mb - 0.00 in0.0 mm 0.22 in5.6 mm
09:15 PM 42.3°F5.7°C 35.3°F1.8°C 76% 3.5 mph W5.6 kmh W 3.5 mph5.6 kmh 29.69 in1005.4 mb - 0.00 in0.0 mm 0.22 in5.6 mm
09:20 PM 42.1°F5.6°C 35.4°F1.9°C 77% 4.6 mph W7.4 kmh W 9.2 mph14.8 kmh 29.69 in1005.4 mb - 0.00 in0.0 mm 0.22 in5.6 mm
09:25 PM 42.0°F5.6°C 35.3°F1.8°C 77% 4.6 mph W7.4 kmh W 5.8 mph9.3 kmh 29.69 in1005.4 mb - 0.00 in0.0 mm 0.22 in5.6 mm
09:30 PM 42.0°F5.6°C 35.3°F1.8°C 77% 8.1 mph WSW13.0 kmh WSW 15.0 mph24.1 kmh 29.70 in1005.8 mb - 0.00 in0.0 mm 0.22 in5.6 mm
09:35 PM 42.5°F5.8°C 35.8°F2.1°C 77% 4.6 mph W7.4 kmh W 6.9 mph11.1 kmh 29.70 in1005.8 mb - 0.00 in0.0 mm 0.22 in5.6 mm
09:40 PM 42.5°F5.8°C 35.8°F2.1°C 77% 4.6 mph W7.4 kmh W 6.9 mph11.1 kmh 29.70 in1005.8 mb - 0.00 in0.0 mm 0.22 in5.6 mm
09:45 PM 42.3°F5.7°C 35.6°F2.0°C 77% 3.5 mph W5.6 kmh W 5.8 mph9.3 kmh 29.70 in1005.8 mb - 0.00 in0.0 mm 0.22 in5.6 mm
09:50 PM 42.2°F5.7°C 35.5°F1.9°C 77% 5.8 mph W9.3 kmh W 9.2 mph14.8 kmh 29.71 in1006.1 mb - 0.00 in0.0 mm 0.22 in5.6 mm
09:55 PM 42.3°F5.7°C 35.6°F2.0°C 77% 5.8 mph W9.3 kmh W 10.4 mph16.7 kmh 29.71 in1006.1 mb - 0.00 in0.0 mm 0.22 in5.6 mm
10:00 PM 42.5°F5.8°C 35.8°F2.1°C 77% 6.9 mph W11.1 kmh W 9.2 mph14.8 kmh 29.71 in1006.1 mb - 0.00 in0.0 mm 0.22 in5.6 mm
10:05 PM 42.6°F5.9°C 35.9°F2.2°C 77% 5.8 mph WNW9.3 kmh WNW 9.2 mph14.8 kmh 29.71 in1006.1 mb - 0.00 in0.0 mm 0.22 in5.6 mm
10:10 PM 42.5°F5.8°C 36.1°F2.3°C 78% 8.1 mph WNW13.0 kmh WNW 11.5 mph18.5 kmh 29.72 in1006.4 mb - 0.00 in0.0 mm 0.22 in5.6 mm
10:15 PM 42.3°F5.7°C 35.9°F2.2°C 78% 6.9 mph W11.1 kmh W 8.1 mph13.0 kmh 29.72 in1006.4 mb - 0.00 in0.0 mm 0.22 in5.6 mm
10:20 PM 42.0°F5.6°C 35.6°F2.0°C 78% 5.8 mph W9.3 kmh W 8.1 mph13.0 kmh 29.72 in1006.4 mb - 0.00 in0.0 mm 0.22 in5.6 mm
10:25 PM 41.6°F5.3°C 35.2°F1.8°C 78% 5.8 mph W9.3 kmh W 8.1 mph13.0 kmh 29.72 in1006.4 mb - 0.00 in0.0 mm 0.22 in5.6 mm
10:30 PM 41.3°F5.2°C 35.0°F1.7°C 78% 6.9 mph WSW11.1 kmh WSW 12.7 mph20.4 kmh 29.72 in1006.4 mb - 0.00 in0.0 mm 0.22 in5.6 mm
10:35 PM 41.1°F5.1°C 34.8°F1.6°C 78% 3.5 mph WSW5.6 kmh WSW 5.8 mph9.3 kmh 29.72 in1006.4 mb - 0.00 in0.0 mm 0.22 in5.6 mm
10:40 PM 41.0°F5.0°C 34.7°F1.5°C 78% 4.6 mph W7.4 kmh W 8.1 mph13.0 kmh 29.72 in1006.4 mb - 0.00 in0.0 mm 0.22 in5.6 mm
10:45 PM 41.1°F5.1°C 34.8°F1.6°C 78% 5.8 mph WSW9.3 kmh WSW 8.1 mph13.0 kmh 29.72 in1006.4 mb - 0.01 in0.3 mm 0.22 in5.6 mm
10:50 PM 41.6°F5.3°C 35.2°F1.8°C 78% 4.6 mph W7.4 kmh W 9.2 mph14.8 kmh 29.73 in1006.8 mb - 0.00 in0.0 mm 0.22 in5.6 mm
10:55 PM 41.8°F5.4°C 35.4°F1.9°C 78% 5.8 mph W9.3 kmh W 9.2 mph14.8 kmh 29.73 in1006.8 mb - 0.00 in0.0 mm 0.22 in5.6 mm
11:00 PM 41.8°F5.4°C 35.4°F1.9°C 78% 3.5 mph W5.6 kmh W 3.5 mph5.6 kmh 29.73 in1006.8 mb - 0.00 in0.0 mm 0.33 in8.4 mm
11:05 PM 41.6°F5.3°C 35.3°F1.8°C 78% 3.5 mph WSW5.6 kmh WSW 3.5 mph5.6 kmh 29.73 in1006.8 mb - 0.00 in0.0 mm 0.33 in8.4 mm
11:10 PM 41.5°F5.3°C 35.2°F1.8°C 78% 2.3 mph WSW3.7 kmh WSW 3.5 mph5.6 kmh 29.73 in1006.8 mb - 0.00 in0.0 mm 0.33 in8.4 mm
11:15 PM 41.5°F5.3°C 35.2°F1.8°C 78% 2.3 mph WSW3.7 kmh WSW 3.5 mph5.6 kmh 29.74 in1007.1 mb - 0.00 in0.0 mm 0.33 in8.4 mm
11:20 PM 41.4°F5.2°C 35.1°F1.7°C 78% 2.3 mph WSW3.7 kmh WSW 3.5 mph5.6 kmh 29.74 in1007.1 mb - 0.00 in0.0 mm 0.33 in8.4 mm
11:25 PM 41.4°F5.2°C 35.1°F1.7°C 78% 2.3 mph WSW3.7 kmh WSW 3.5 mph5.6 kmh 29.74 in1007.1 mb - 0.01 in0.3 mm 0.01 in0.3 mm
11:30 PM 41.4°F5.2°C 35.1°F1.7°C 78% 4.6 mph WSW7.4 kmh WSW 6.9 mph11.1 kmh 29.74 in1007.1 mb - 0.00 in0.0 mm 0.01 in0.3 mm
11:35 PM 41.3°F5.2°C 35.0°F1.7°C 78% 4.6 mph W7.4 kmh W 6.9 mph11.1 kmh 29.74 in1007.1 mb - 0.00 in0.0 mm 0.01 in0.3 mm
11:40 PM 41.3°F5.2°C 35.0°F1.7°C 78% 5.8 mph W9.3 kmh W 8.1 mph13.0 kmh 29.75 in1007.5 mb - 0.01 in0.3 mm 0.02 in0.5 mm
11:45 PM 41.3°F5.2°C 35.0°F1.7°C 78% 2.3 mph WSW3.7 kmh WSW 6.9 mph11.1 kmh 29.75 in1007.5 mb - 0.00 in0.0 mm 0.02 in0.5 mm
11:50 PM 41.1°F5.1°C 34.8°F1.6°C 78% 3.5 mph W5.6 kmh W 5.8 mph9.3 kmh 29.75 in1007.5 mb - 0.00 in0.0 mm 0.02 in0.5 mm
11:55 PM 41.0°F5.0°C 34.7°F1.5°C 78% 2.3 mph W3.7 kmh W 3.5 mph5.6 kmh 29.75 in1007.5 mb - 0.00 in0.0 mm 0.02 in0.5 mm